Time;durP1;ratioP1;P1;durP2;ratioP2;P2;SDS_P1;SDS_P2;PMS_P1;PMS_P2;Temp;Humidity;BMP_temperature;BMP_pressure;BME280_temperature;BME280_humidity;BME280_pressure;Samples;Min_cycle;Max_cycle;Signal;HPM_P1;HPM_P2
2022/11/03 00:02:38;;;;;;;18.40;10.55;;;;;;;12.61;64.28;100568.19;7711727;32;39967;-78
2022/11/03 00:06:55;;;;;;;21.30;10.43;;;;;;;12.68;63.69;100558.66;7724656;32;38239;-77
2022/11/03 00:11:13;;;;;;;19.23;11.90;;;;;;;12.42;63.94;100567.81;7737259;32;37180;-76
2022/11/03 00:15:29;;;;;;;17.00;10.50;;;;;;;12.68;63.50;100571.53;7738483;32;38349;-76
2022/11/03 00:19:45;;;;;;;20.37;11.20;;;;;;;12.90;61.86;100560.38;7738065;32;38951;-76
2022/11/03 00:24:02;;;;;;;20.50;10.63;;;;;;;12.76;61.44;100555.41;7738365;32;38052;-76
2022/11/03 00:28:18;;;;;;;18.83;11.25;;;;;;;12.71;60.91;100560.00;7738294;32;37190;-77
2022/11/03 00:32:34;;;;;;;20.35;10.32;;;;;;;12.82;60.42;100558.97;7738185;32;40018;-78
2022/11/03 00:36:50;;;;;;;20.95;10.88;;;;;;;12.52;61.18;100557.78;7726288;32;40028;-77
2022/11/03 00:41:07;;;;;;;20.00;11.18;;;;;;;12.73;60.77;100555.13;7711181;32;38004;-77
2022/11/03 00:45:23;;;;;;;17.75;10.70;;;;;;;12.71;61.03;100554.53;7711238;32;37392;-76
2022/11/03 00:49:39;;;;;;;17.50;10.52;;;;;;;12.68;61.17;100555.09;7711319;32;39123;-77
2022/11/03 00:54:01;;;;;;;18.48;10.20;;;;;;;12.65;61.23;100555.63;7710807;32;39699;-77
2022/11/03 00:58:17;;;;;;;18.05;10.88;;;;;;;12.68;61.86;100544.97;7711330;32;36970;-77
2022/11/03 01:02:33;;;;;;;20.40;11.25;;;;;;;12.28;62.96;100557.38;7711020;32;37873;-77
2022/11/03 01:06:53;;;;;;;21.70;12.23;;;;;;;12.16;63.58;100554.00;7711765;32;39142;-77
2022/11/03 01:15:49;;;;;;;19.62;11.57;;;;;;;12.25;63.21;100563.34;7710921;32;38582;-77
2022/11/03 01:20:05;;;;;;;19.42;11.18;;;;;;;11.98;64.05;100556.06;7710690;32;37363;-78
2022/11/03 01:24:22;;;;;;;21.10;12.00;;;;;;;11.99;63.39;100560.44;7710646;32;39274;-80
2022/11/03 01:28:40;;;;;;;17.73;10.55;;;;;;;12.05;62.32;100558.56;7710569;32;39890;-79
2022/11/03 01:32:56;;;;;;;17.40;11.18;;;;;;;11.90;62.80;100558.44;7710363;32;38794;-76
2022/11/03 01:37:12;;;;;;;29.63;11.40;;;;;;;11.72;62.96;100559.66;7709015;32;37102;-78
2022/11/03 01:41:28;;;;;;;18.80;11.23;;;;;;;11.90;62.13;100550.22;7710301;32;40238;-78
2022/11/03 01:45:46;;;;;;;20.37;11.68;;;;;;;11.59;64.20;100561.75;7710142;32;40022;-78
2022/11/03 01:50:11;;;;;;;21.85;12.02;;;;;;;11.44;66.31;100553.41;7710098;32;37806;-78
2022/11/03 01:54:28;;;;;;;110.18;15.07;;;;;;;11.58;65.10;100553.81;7724633;32;37133;-78
2022/11/03 01:58:47;;;;;;;33.35;12.75;;;;;;;11.52;65.32;100550.22;7736703;32;40121;-79
2022/11/03 02:03:04;;;;;;;26.25;11.60;;;;;;;11.42;65.61;100553.66;7737004;32;39716;-79
2022/11/03 02:07:27;;;;;;;25.98;13.02;;;;;;;11.21;65.54;100543.62;7739801;32;38583;-79
2022/11/03 02:16:19;;;;;;;19.30;10.85;;;;;;;11.36;64.24;100545.69;7739960;32;39882;-77
2022/11/03 02:20:36;;;;;;;22.23;11.15;;;;;;;11.28;64.55;100544.25;7739833;32;39744;-77
2022/11/03 02:24:56;;;;;;;19.02;10.57;;;;;;;11.42;64.32;100544.66;7722001;32;38737;-79
2022/11/03 02:29:12;;;;;;;17.20;10.48;;;;;;;11.20;65.20;100540.06;7712994;32;37973;-78
2022/11/03 02:33:48;;;;;;;17.70;9.20;;;;;;;11.10;64.88;100550.88;7712803;32;39123;-78
2022/11/03 02:38:08;;;;;;;17.45;9.18;;;;;;;10.89;64.42;100542.47;7713117;32;39545;-77
2022/11/03 02:42:25;;;;;;;15.88;10.10;;;;;;;11.00;63.80;100542.59;7712723;32;37976;-78
2022/11/03 02:46:43;;;;;;;14.87;9.43;;;;;;;10.92;63.57;100545.75;7733154;32;37143;-78
2022/11/03 02:51:02;;;;;;;17.75;10.15;;;;;;;11.05;63.76;100545.37;7739455;32;39188;-78
2022/11/03 02:55:37;;;;;;;17.48;10.98;;;;;;;10.48;66.55;100541.97;7715888;32;42043;-77
2022/11/03 03:00:04;;;;;;;20.42;10.27;;;;;;;10.75;66.41;100538.50;7712552;32;37846;-79
2022/11/03 03:04:38;;;;;;;16.95;10.05;;;;;;;10.93;64.62;100542.78;7711335;32;37290;-80
2022/11/03 03:08:57;;;;;;;68.87;14.73;;;;;;;10.75;64.46;100537.69;7711409;32;39520;-80
2022/11/03 03:13:16;;;;;;;19.17;11.32;;;;;;;10.61;65.31;100537.25;7711836;32;38794;-77
2022/11/03 03:18:00;;;;;;;14.32;9.63;;;;;;;10.49;64.97;100540.91;7710842;32;37960;-79
2022/11/03 03:22:20;;;;;;;13.50;8.20;;;;;;;10.63;63.82;100532.34;7712404;32;37931;-77
2022/11/03 03:26:41;;;;;;;16.12;9.23;;;;;;;10.69;62.93;100534.06;7739158;32;39558;-77
2022/11/03 03:30:59;;;;;;;13.90;7.87;;;;;;;10.59;63.35;100531.19;7735007;32;40852;-77
2022/11/03 03:35:19;;;;;;;17.42;9.43;;;;;;;10.38;63.42;100525.47;7710848;32;37745;-77
2022/11/03 03:39:38;;;;;;;26.95;9.75;;;;;;;10.58;62.91;100519.47;7712024;32;37342;-78
2022/11/03 03:43:57;;;;;;;16.33;8.75;;;;;;;10.57;64.05;100519.72;7711049;32;39993;-77
2022/11/03 03:48:14;;;;;;;14.82;8.20;;;;;;;10.32;63.92;100518.34;7698591;32;39678;-78
2022/11/03 03:52:32;;;;;;;13.90;7.43;;;;;;;10.07;64.82;100524.22;7711884;32;37917;-78
2022/11/03 03:57:02;;;;;;;13.38;8.27;;;;;;;10.28;63.42;100522.63;7711909;32;37901;-79
2022/11/03 04:01:18;;;;;;;34.85;10.23;;;;;;;9.80;64.65;100522.19;7712596;32;39842;-78
2022/11/03 04:05:34;;;;;;;17.75;8.82;;;;;;;9.80;65.54;100518.66;7711734;32;39952;-80
2022/11/03 04:09:50;;;;;;;238.65;15.18;;;;;;;9.92;65.30;100519.38;7711728;32;38030;-80
2022/11/03 04:23:20;;;;;;;29.48;9.80;;;;;;;9.88;67.00;100510.88;7713235;32;39804;-79
2022/11/03 04:27:37;;;;;;;12.77;7.65;;;;;;;9.69;67.78;100513.06;7737773;32;38228;-80
2022/11/03 04:31:53;;;;;;;14.80;8.23;;;;;;;10.18;65.32;100492.50;7738341;32;37795;-79
2022/11/03 04:36:22;;;;;;;14.60;8.13;;;;;;;10.05;65.02;100472.69;7736988;32;40059;-79
2022/11/03 04:40:43;;;;;;;13.90;8.43;;;;;;;9.06;66.19;100493.19;7737191;32;39883;-77
2022/11/03 04:45:13;;;;;;;159.68;12.43;;;;;;;9.55;65.08;100484.50;7737188;32;37670;-81
2022/11/03 04:49:29;;;;;;;19.52;8.13;;;;;;;9.30;65.45;100504.78;7737106;32;37273;-79
2022/11/03 04:54:12;;;;;;;16.05;8.13;;;;;;;9.05;66.10;100501.59;7736648;32;39963;-78
2022/11/03 04:58:33;;;;;;;13.23;7.45;;;;;;;8.70;67.13;100495.25;7736931;32;40754;-78
2022/11/03 05:02:50;;;;;;;236.93;14.55;;;;;;;9.05;65.70;100493.44;7736563;32;37818;-79
2022/11/03 05:07:33;;;;;;;311.65;19.08;;;;;;;8.63;68.04;100495.38;7736750;32;38106;-79
2022/11/03 05:11:49;;;;;;;29.58;8.60;;;;;;;9.15;66.72;100491.72;7737805;32;39283;-80
2022/11/03 05:16:06;;;;;;;32.63;8.02;;;;;;;9.15;67.14;100499.88;7737768;32;40671;-79
2022/11/03 05:20:39;;;;;;;12.85;7.55;;;;;;;8.68;68.27;100493.84;7736502;32;37836;-79
2022/11/03 05:25:02;;;;;;;12.33;6.80;;;;;;;9.09;66.60;100476.41;7710877;32;37828;-79
2022/11/03 05:29:25;;;;;;;17.20;6.82;;;;;;;9.44;65.95;100479.97;7710812;32;39372;-78
2022/11/03 05:33:43;;;;;;;288.87;17.10;;;;;;;9.34;66.42;100488.78;7710622;32;39884;-79
2022/11/03 05:38:01;;;;;;;13.40;6.97;;;;;;;8.86;67.27;100495.53;7709125;32;36998;-80
2022/11/03 05:42:36;;;;;;;12.50;6.65;;;;;;;8.99;67.03;100487.91;7710387;32;36923;-80
2022/11/03 05:46:52;;;;;;;13.40;6.00;;;;;;;9.11;66.06;100492.47;7710464;32;40153;-82
2022/11/03 05:51:20;;;;;;;13.70;5.68;;;;;;;9.10;66.89;100488.09;7710075;32;40824;-78
2022/11/03 05:55:36;;;;;;;98.68;11.00;;;;;;;9.48;67.20;100505.59;7710117;32;36901;-79
2022/11/03 05:59:53;;;;;;;104.50;11.25;;;;;;;8.74;66.36;100525.50;7709863;32;37236;-80
2022/11/03 06:04:18;;;;;;;118.30;11.38;;;;;;;8.62;67.16;100520.94;7709808;32;39604;-78
2022/11/03 06:08:35;;;;;;;12.93;6.50;;;;;;;9.12;66.12;100526.75;7709772;32;40838;-78
2022/11/03 06:13:12;;;;;;;9.90;5.97;;;;;;;9.16;66.71;100526.03;7726301;32;38692;-77
2022/11/03 06:17:29;;;;;;;9.90;5.82;;;;;;;9.15;66.89;100534.44;7735427;32;37137;-79
2022/11/03 06:21:46;;;;;;;14.57;5.60;;;;;;;9.55;65.68;100525.31;7724936;32;39245;-78
2022/11/03 06:26:03;;;;;;;11.40;6.07;;;;;;;9.88;64.73;100526.38;7708832;32;40780;-78
2022/11/03 06:30:26;;;;;;;12.35;5.55;;;;;;;9.66;65.77;100529.88;7709155;32;37919;-79
2022/11/03 06:34:47;;;;;;;11.18;6.43;;;;;;;10.13;65.00;100528.66;7709082;32;37320;-78
2022/11/03 06:39:17;;;;;;;10.27;5.03;;;;;;;9.78;66.81;100544.22;7708944;32;39237;-77
2022/11/03 06:43:39;;;;;;;11.93;6.47;;;;;;;9.97;66.43;100549.41;7707832;32;39935;-78
2022/11/03 06:47:56;;;;;;;12.37;5.60;;;;;;;9.71;66.58;100561.78;7714063;32;37784;-77
2022/11/03 06:52:30;;;;;;;10.25;5.60;;;;;;;9.86;65.99;100550.31;7724404;32;36804;-76
2022/11/03 06:56:46;;;;;;;10.10;5.53;;;;;;;10.34;64.78;100559.78;7711623;32;39273;-82
2022/11/03 07:01:18;;;;;;;11.12;6.05;;;;;;;10.38;65.73;100555.47;7712540;32;39961;-81
2022/11/03 07:05:35;;;;;;;11.00;6.18;;;;;;;10.02;67.63;100560.41;7712470;32;37912;-77
2022/11/03 07:09:53;;;;;;;11.75;6.60;;;;;;;10.43;66.31;100558.25;7711401;32;36950;-78
2022/11/03 07:14:18;;;;;;;50.35;7.05;;;;;;;10.55;66.57;100558.16;7729862;32;40637;-76
2022/11/03 07:18:39;;;;;;;137.15;11.70;;;;;;;9.49;71.23;100578.03;7736746;32;40774;-84
2022/11/03 07:23:00;;;;;;;22.85;14.70;;;;;;;9.93;69.99;100580.94;7712204;32;37667;-80
2022/11/03 07:27:26;;;;;;;25.60;14.87;;;;;;;10.47;67.76;100575.78;7718762;32;36915;-79
2022/11/03 07:31:42;;;;;;;12.60;7.50;;;;;;;11.08;67.17;100569.44;7726956;32;39335;-80
2022/11/03 07:35:59;;;;;;;15.00;6.68;;;;;;;11.71;66.68;100564.31;7729399;32;39613;-81
2022/11/03 07:40:33;;;;;;;14.95;6.62;;;;;;;11.96;66.34;100566.44;7738387;32;38585;-80
2022/11/03 07:44:50;;;;;;;18.45;8.10;;;;;;;12.33;64.72;100549.19;7715689;32;37888;-82
2022/11/03 07:49:19;;;;;;;13.88;5.93;;;;;;;12.59;64.16;100539.19;7712011;32;40075;-79
2022/11/03 07:53:46;;;;;;;12.95;7.62;;;;;;;12.85;62.61;100535.72;7732171;32;40705;-80
2022/11/03 07:58:23;;;;;;;15.52;7.53;;;;;;;12.32;63.06;100536.59;7712398;32;37841;-81
2022/11/03 08:02:53;;;;;;;12.15;7.12;;;;;;;12.55;62.24;100529.88;7720261;32;38027;-81
2022/11/03 08:07:10;;;;;;;13.48;6.43;;;;;;;12.29;63.35;100534.38;7738560;32;39912;-79
2022/11/03 08:11:26;;;;;;;13.73;6.03;;;;;;;11.73;65.24;100543.00;7721863;32;40542;-79
2022/11/03 08:15:44;;;;;;;15.00;7.05;;;;;;;12.51;63.43;100538.87;7738293;32;36999;-80
2022/11/03 08:20:00;;;;;;;13.13;6.75;;;;;;;12.81;62.26;100520.94;7734314;32;37126;-75
2022/11/03 08:24:17;;;;;;;10.20;6.20;;;;;;;13.15;62.92;100522.13;7738223;32;39316;-77
2022/11/03 08:28:34;;;;;;;13.02;5.97;;;;;;;13.04;62.80;100520.47;7737705;32;40776;-79
2022/11/03 08:32:50;;;;;;;10.77;5.18;;;;;;;13.52;60.88;100518.37;7741988;32;37950;-80
2022/11/03 08:37:06;;;;;;;8.35;4.35;;;;;;;14.17;59.58;100514.97;7726710;32;37190;-79
2022/11/03 08:41:22;;;;;;;11.12;4.60;;;;;;;13.85;59.19;100515.34;7712920;32;40120;-79
2022/11/03 08:45:39;;;;;;;8.27;4.53;;;;;;;14.42;57.61;100513.28;7710004;32;40096;-80
2022/11/03 08:49:55;;;;;;;13.50;5.87;;;;;;;14.44;56.40;100522.88;7710027;32;37952;-80
2022/11/03 08:54:11;;;;;;;27.30;8.90;;;;;;;14.96;55.84;100515.25;7711089;32;36981;-80
2022/11/03 08:58:28;;;;;;;18.55;9.63;;;;;;;15.30;54.92;100519.16;7710049;32;39074;-80
2022/11/03 09:02:44;;;;;;;24.17;11.55;;;;;;;15.19;56.04;100519.25;7711076;32;39590;-80
2022/11/03 09:07:00;;;;;;;29.60;11.88;;;;;;;14.89;58.14;100509.25;7709736;32;38004;-76
2022/11/03 09:11:17;;;;;;;27.33;12.50;;;;;;;15.23;57.59;100514.00;7711038;32;37364;-80
2022/11/03 09:15:33;;;;;;;27.60;12.73;;;;;;;15.33;57.08;100515.81;7710561;32;40070;-77
2022/11/03 09:19:49;;;;;;;26.02;12.68;;;;;;;15.40;58.16;100511.66;7710670;32;40875;-79
2022/11/03 09:24:06;;;;;;;24.90;12.18;;;;;;;15.47;57.23;100511.34;7710468;32;37568;-79
2022/11/03 09:28:22;;;;;;;25.23;11.75;;;;;;;15.54;57.24;100505.53;7705820;32;154707;-79
2022/11/03 09:32:39;;;;;;;26.75;12.00;;;;;;;15.46;57.28;100506.13;7710408;32;39297;-79
2022/11/03 09:36:55;;;;;;;26.10;12.77;;;;;;;15.21;58.00;100510.69;7710279;32;39754;-79
2022/11/03 09:41:16;;;;;;;26.60;12.55;;;;;;;15.50;57.58;100507.19;7710052;32;37976;-79
2022/11/03 09:45:41;;;;;;;30.35;13.25;;;;;;;15.42;57.65;100499.53;7709853;32;36945;-79
2022/11/03 09:49:58;;;;;;;29.35;13.43;;;;;;;15.22;58.45;100501.34;7710678;32;38804;-78
2022/11/03 09:54:15;;;;;;;27.00;13.23;;;;;;;15.27;58.32;100492.25;7709945;32;40843;-78
2022/11/03 09:58:32;;;;;;;30.50;14.27;;;;;;;15.13;58.52;100494.84;7709941;32;38860;-79
2022/11/03 10:02:49;;;;;;;32.13;12.73;;;;;;;15.03;59.24;100485.53;7708665;32;37172;-79
2022/11/03 10:07:07;;;;;;;28.33;13.25;;;;;;;15.11;58.51;100480.53;7709735;32;39364;-79
2022/11/03 10:11:23;;;;;;;33.83;13.95;;;;;;;14.91;59.22;100468.59;7721972;32;40294;-80
2022/11/03 10:15:41;;;;;;;29.92;13.82;;;;;;;14.87;58.64;100456.56;7709401;32;37787;-80
2022/11/03 10:19:57;;;;;;;32.15;14.23;;;;;;;14.82;59.43;100460.16;7709474;32;38094;-79
2022/11/03 10:24:14;;;;;;;29.00;13.77;;;;;;;15.16;58.26;100455.78;7696262;32;39906;-79
2022/11/03 10:28:30;;;;;;;29.67;13.62;;;;;;;14.94;58.68;100448.81;7716370;32;39883;-80
2022/11/03 10:32:46;;;;;;;31.75;14.45;;;;;;;15.16;58.17;100447.56;7739548;32;38777;-80
2022/11/03 10:37:19;;;;;;;31.20;14.77;;;;;;;14.76;59.11;100436.59;7732297;32;37201;-80
2022/11/03 10:41:35;;;;;;;34.85;14.55;;;;;;;14.81;59.33;100424.75;7729753;32;39967;-78
2022/11/03 10:46:08;;;;;;;34.90;15.95;;;;;;;14.72;58.79;100426.47;7736967;32;39937;-79
2022/11/03 10:50:44;;;;;;;32.42;15.68;;;;;;;14.54;60.15;100415.00;7732537;32;39119;-78
2022/11/03 10:55:02;;;;;;;31.55;15.55;;;;;;;14.79;59.60;100407.75;7734209;32;37483;-77
2022/11/03 10:59:26;;;;;;;35.47;15.88;;;;;;;14.55;60.22;100399.34;7719463;32;39416;-79
2022/11/03 11:03:43;;;;;;;;;;;;;;;14.76;59.75;100394.59;7722152;32;39937;-80
2022/11/03 11:08:00;;;;;;;33.13;15.52;;;;;;;15.00;58.95;100379.06;7739477;32;38150;-79
2022/11/03 11:12:21;;;;;;;33.80;15.50;;;;;;;14.77;59.70;100372.34;7727995;32;37958;-79
2022/11/03 11:16:49;;;;;;;34.33;15.48;;;;;;;14.85;59.21;100370.94;7725406;32;39108;-80
2022/11/03 11:21:16;;;;;;;42.53;16.60;;;;;;;14.38;60.81;100361.31;7734603;32;39872;-77
2022/11/03 11:26:13;;;;;;;34.08;15.73;;;;;;;14.50;60.53;100353.56;7726279;32;38148;-79
2022/11/03 11:30:29;;;;;;;36.40;15.57;;;;;;;13.90;62.32;100351.69;7714517;32;36876;-77
2022/11/03 11:34:46;;;;;;;33.83;16.00;;;;;;;13.93;62.36;100342.06;7728263;32;39155;-76
2022/11/03 11:39:06;;;;;;;34.13;16.83;;;;;;;13.60;63.33;100349.06;7719474;32;40820;-77
2022/11/03 11:43:26;;;;;;;39.17;17.00;;;;;;;13.93;62.35;100342.06;7714158;32;39026;-77
2022/11/03 11:47:47;;;;;;;32.30;16.85;;;;;;;13.91;62.75;100336.06;7735968;32;38062;-77
2022/11/03 11:52:07;;;;;;;38.67;16.85;;;;;;;14.08;62.29;100316.53;7728739;32;39273;-78
2022/11/03 11:56:29;;;;;;;32.80;16.00;;;;;;;13.88;63.16;100323.75;7738519;32;40660;-77
2022/11/03 12:01:00;;;;;;;37.55;15.25;;;;;;;14.13;62.29;100311.00;7716901;32;38750;-80
2022/11/03 12:05:28;;;;;;;37.00;17.48;;;;;;;14.12;61.95;100303.88;7710822;32;37323;-79
2022/11/03 12:09:45;;;;;;;33.60;14.55;;;;;;;14.26;61.75;100299.44;7716823;32;39280;-80
2022/11/03 12:14:02;;;;;;;36.40;16.20;;;;;;;14.41;61.46;100294.94;7710424;32;39788;-80
2022/11/03 12:18:31;;;;;;;47.62;17.42;;;;;;;14.11;62.54;100290.44;7711513;32;37771;-79
2022/11/03 12:22:54;;;;;;;40.97;17.48;;;;;;;14.16;62.55;100294.00;7732894;32;38249;-78
2022/11/03 12:27:23;;;;;;;87.97;38.33;;;;;;;13.80;64.32;100291.44;7726025;32;39292;-78
2022/11/03 12:31:39;;;;;;;36.42;15.90;;;;;;;14.18;62.83;100274.53;7710301;32;40057;-78
2022/11/03 12:35:56;;;;;;;41.55;17.75;;;;;;;14.40;62.14;100268.59;7711192;32;38945;-78
2022/11/03 12:40:13;;;;;;;34.47;17.08;;;;;;;14.41;61.91;100267.50;7710760;32;37191;-79
2022/11/03 12:44:29;;;;;;;42.53;18.60;;;;;;;13.75;63.77;100264.06;7711369;32;40119;-79
2022/11/03 12:48:47;;;;;;;37.95;16.30;;;;;;;14.11;62.97;100261.13;7710784;32;40910;-79
2022/11/03 12:53:05;;;;;;;108.35;52.78;;;;;;;14.32;62.10;100255.50;7711197;32;38782;-79
2022/11/03 12:57:22;;;;;;;35.38;18.25;;;;;;;14.79;60.92;100240.31;7711156;32;36469;-79
2022/11/03 13:01:38;;;;;;;39.17;19.27;;;;;;;14.70;61.06;100240.13;7711160;32;40079;-79
2022/11/03 13:05:54;;;;;;;49.70;18.00;;;;;;;14.38;62.21;100240.63;7711093;32;39936;-79
2022/11/03 13:10:11;;;;;;;34.10;16.60;;;;;;;14.29;62.82;100226.72;7710922;32;38222;-79
2022/11/03 13:14:27;;;;;;;41.40;18.33;;;;;;;14.46;62.48;100220.84;7709590;32;37160;-79
2022/11/03 13:18:43;;;;;;;41.78;19.62;;;;;;;14.27;62.90;100227.00;7710949;32;40096;-79
2022/11/03 13:22:59;;;;;;;38.45;18.67;;;;;;;14.41;62.56;100213.44;7710833;32;39714;-79
2022/11/03 13:27:16;;;;;;;42.45;18.83;;;;;;;14.07;63.61;100218.91;7710582;32;38837;-79
2022/11/03 13:31:33;;;;;;;42.60;18.58;;;;;;;14.12;63.65;100207.09;7710665;32;36974;-79
2022/11/03 13:35:49;;;;;;;38.42;17.20;;;;;;;14.30;63.06;100211.06;7710512;32;40036;-79
2022/11/03 13:40:06;;;;;;;42.40;18.33;;;;;;;14.05;63.72;100213.72;7710295;32;39716;-78
2022/11/03 13:44:23;;;;;;;37.60;18.05;;;;;;;13.90;64.27;100203.69;7710300;32;38298;-78
2022/11/03 13:48:39;;;;;;;36.28;17.40;;;;;;;13.75;64.76;100201.03;7710351;32;37416;-79
2022/11/03 13:53:15;;;;;;;40.85;17.87;;;;;;;14.00;63.71;100204.72;7709664;32;40519;-79
2022/11/03 13:57:51;;;;;;;42.25;18.98;;;;;;;14.11;63.58;100195.34;7709578;32;40230;-78
2022/11/03 14:02:28;;;;;;;41.85;18.40;;;;;;;13.38;66.18;100185.06;7712391;32;39634;-80
2022/11/03 14:07:05;;;;;;;37.80;18.55;;;;;;;13.47;65.60;100186.09;7736787;32;37531;-78
2022/11/03 14:15:55;;;;;;;59.75;25.15;;;;;;;12.89;67.61;100175.63;7739729;32;40843;-77
2022/11/03 14:20:12;;;;;;;47.30;20.35;;;;;;;13.43;65.95;100187.78;7739670;32;37900;-79
2022/11/03 14:24:28;;;;;;;41.90;18.98;;;;;;;13.34;66.44;100179.34;7739614;32;37250;-79
2022/11/03 14:28:44;;;;;;;43.92;20.67;;;;;;;13.48;65.76;100185.81;7739546;32;40180;-78
2022/11/03 14:33:00;;;;;;;39.35;18.80;;;;;;;13.33;66.17;100172.22;7739442;32;40847;-78
2022/11/03 14:37:17;;;;;;;38.28;17.37;;;;;;;13.52;65.34;100164.16;7739127;32;38889;-79
2022/11/03 14:46:08;;;;;;;41.95;20.35;;;;;;;13.68;64.35;100164.94;7727759;32;40205;-79
2022/11/03 14:50:24;;;;;;;37.88;17.85;;;;;;;13.44;64.84;100159.31;7711647;32;40650;-78
2022/11/03 14:54:41;;;;;;;35.75;17.40;;;;;;;13.58;64.50;100157.56;7712339;32;36328;-79
2022/11/03 14:58:58;;;;;;;66.72;38.90;;;;;;;13.42;64.78;100154.09;7712461;32;37888;-78
2022/11/03 15:03:14;;;;;;;38.70;19.35;;;;;;;13.10;65.70;100141.63;7711638;32;39010;-79
2022/11/03 15:07:31;;;;;;;38.97;18.48;;;;;;;13.36;65.05;100138.78;7712201;32;39960;-79
2022/11/03 15:11:47;;;;;;;36.25;18.10;;;;;;;12.89;66.72;100140.06;7711014;32;38022;-78
2022/11/03 15:16:04;;;;;;;35.90;16.90;;;;;;;13.20;65.82;100140.75;7712094;32;37960;-78
2022/11/03 15:20:21;;;;;;;39.38;17.35;;;;;;;13.24;65.53;100124.59;7711615;32;39324;-79
2022/11/03 15:24:37;;;;;;;37.15;16.12;;;;;;;13.29;65.04;100122.63;7710800;32;39949;-82
2022/11/03 15:29:13;;;;;;;30.65;15.60;;;;;;;13.34;64.52;100125.37;7711600;32;39779;-80
2022/11/03 15:33:29;;;;;;;31.73;15.55;;;;;;;13.31;64.82;100116.88;7712182;32;37147;-79
2022/11/03 15:37:46;;;;;;;26.42;15.20;;;;;;;13.61;63.82;100107.72;7718808;32;37558;-80
2022/11/03 15:42:02;;;;;;;37.45;17.45;;;;;;;13.63;63.42;100107.44;7718669;32;39893;-79
2022/11/03 15:46:19;;;;;;;32.17;17.27;;;;;;;13.44;64.09;100101.78;7711798;32;38098;-80
2022/11/03 15:50:35;;;;;;;30.98;15.95;;;;;;;13.11;65.15;100106.88;7711968;32;37246;-80
2022/11/03 15:54:51;;;;;;;32.95;16.05;;;;;;;13.52;63.86;100110.22;7711770;32;39399;-77
2022/11/03 15:59:07;;;;;;;31.50;15.38;;;;;;;13.64;63.56;100098.94;7711854;32;40869;-79
2022/11/03 16:03:24;;;;;;;27.55;15.52;;;;;;;13.31;64.28;100086.75;7711613;32;38862;-78
2022/11/03 16:07:40;;;;;;;29.08;16.25;;;;;;;13.30;64.11;100088.69;7711621;32;37211;-78
2022/11/03 16:11:56;;;;;;;26.62;14.93;;;;;;;13.22;64.35;100078.31;7711653;32;40150;-78
2022/11/03 16:16:13;;;;;;;28.08;15.10;;;;;;;12.49;66.87;100079.72;7711413;32;39858;-78
2022/11/03 16:20:30;;;;;;;34.15;16.98;;;;;;;11.94;69.04;100076.78;7711482;32;37926;-80
2022/11/03 16:24:47;;;;;;;33.70;17.80;;;;;;;12.65;66.65;100074.22;7710573;32;38109;-78
2022/11/03 16:29:03;;;;;;;30.45;16.17;;;;;;;12.82;65.85;100073.88;7711404;32;39399;-78
2022/11/03 16:33:20;;;;;;;34.78;17.92;;;;;;;12.52;66.84;100075.59;7711308;32;39782;-78
2022/11/03 16:37:36;;;;;;;31.25;15.85;;;;;;;12.60;66.81;100069.56;7710838;32;38168;-78
2022/11/03 16:41:53;;;;;;;33.55;16.92;;;;;;;12.74;66.21;100073.34;7711224;32;37033;-78
2022/11/03 16:46:10;;;;;;;34.20;15.77;;;;;;;12.75;65.97;100066.78;7711213;32;39075;-79
2022/11/03 16:50:26;;;;;;;33.50;15.20;;;;;;;12.57;66.68;100049.06;7710936;32;39840;-79
2022/11/03 16:54:43;;;;;;;34.92;15.82;;;;;;;12.24;67.74;100063.38;7710811;32;38827;-79
2022/11/03 16:58:59;;;;;;;34.65;15.48;;;;;;;12.38;67.23;100062.53;7710894;32;38014;-78
2022/11/03 17:03:16;;;;;;;34.13;15.55;;;;;;;12.58;66.75;100069.84;7710978;32;39058;-81
2022/11/03 17:07:32;;;;;;;37.28;16.25;;;;;;;12.68;66.27;100069.00;7710855;32;39855;-79
2022/11/03 17:11:48;;;;;;;35.17;15.70;;;;;;;12.82;65.62;100062.94;7710775;32;38198;-75
2022/11/03 17:16:05;;;;;;;35.05;15.80;;;;;;;12.81;65.87;100061.28;7710728;32;37266;-78
2022/11/03 17:20:21;;;;;;;34.10;15.95;;;;;;;12.46;66.77;100054.84;7710640;32;39497;-79
2022/11/03 17:24:37;;;;;;;31.65;16.17;;;;;;;12.80;65.61;100059.62;7710565;32;40703;-78
2022/11/03 17:28:56;;;;;;;32.70;14.57;;;;;;;12.41;66.63;100061.16;7710485;32;38106;-79
2022/11/03 17:33:15;;;;;;;35.00;17.17;;;;;;;12.64;66.04;100056.16;7710372;32;36234;-77
2022/11/03 17:37:33;;;;;;;37.28;16.60;;;;;;;12.82;65.48;100052.81;7710345;32;39270;-78
2022/11/03 17:41:50;;;;;;;39.63;17.00;;;;;;;12.05;68.22;100046.72;7709261;32;38992;-79
2022/11/03 17:46:07;;;;;;;37.40;16.95;;;;;;;12.66;65.96;100043.84;7710105;32;38107;-79
2022/11/03 17:50:24;;;;;;;34.70;16.27;;;;;;;12.90;65.01;100037.72;7710095;32;37146;-79
2022/11/03 17:54:41;;;;;;;37.53;16.75;;;;;;;12.80;65.44;100026.81;7708915;32;40064;-78
2022/11/03 17:58:57;;;;;;;35.70;15.85;;;;;;;12.35;67.03;100011.13;7709861;32;40816;-79
2022/11/03 18:03:13;;;;;;;34.90;16.60;;;;;;;12.59;65.51;100005.03;7709597;32;38084;-79
2022/11/03 18:07:30;;;;;;;33.22;15.18;;;;;;;12.24;67.20;100004.03;7709640;32;37988;-78
2022/11/03 18:16:21;;;;;;;38.60;17.08;;;;;;;12.05;67.43;99989.34;7709416;32;41278;-81
2022/11/03 18:20:41;;;;;;;36.95;16.92;;;;;;;11.76;68.54;99989.91;7709427;32;38760;-80
2022/11/03 18:24:57;;;;;;;37.85;17.33;;;;;;;11.94;68.33;99985.81;7709514;32;37056;-80
2022/11/03 18:29:14;;;;;;;39.80;16.90;;;;;;;12.52;65.93;99980.72;7709178;32;39393;-78
2022/11/03 18:33:33;;;;;;;39.92;17.37;;;;;;;12.51;65.84;99975.53;7707826;32;40796;-78
2022/11/03 18:37:49;;;;;;;42.62;16.77;;;;;;;12.33;66.11;99974.22;7708619;32;37926;-79
2022/11/03 18:42:14;;;;;;;41.97;16.65;;;;;;;12.28;66.90;99966.88;7708906;32;36890;-79
2022/11/03 18:46:30;;;;;;;39.50;18.00;;;;;;;12.35;66.91;99963.84;7709101;32;39820;-78
2022/11/03 18:50:51;;;;;;;36.75;16.45;;;;;;;12.83;64.86;99950.50;7712493;32;40797;-79
2022/11/03 18:55:11;;;;;;;38.20;16.77;;;;;;;13.06;64.20;99937.19;7711269;32;37086;-79
2022/11/03 18:59:33;;;;;;;42.17;17.95;;;;;;;12.87;64.70;99943.34;7711200;32;37151;-79
2022/11/03 19:03:51;;;;;;;37.72;18.02;;;;;;;13.22;63.63;99940.63;7711371;32;39044;-79
2022/11/03 19:08:13;;;;;;;38.38;17.77;;;;;;;12.89;64.52;99932.13;7712386;32;39586;-79
2022/11/03 19:12:30;;;;;;;44.70;18.17;;;;;;;12.95;64.49;99914.53;7712227;32;38145;-79
2022/11/03 19:16:55;;;;;;;40.00;18.05;;;;;;;12.69;65.22;99906.50;7712047;32;38015;-80
2022/11/03 19:21:31;;;;;;;39.08;17.25;;;;;;;12.92;64.68;99909.66;7712000;32;39721;-78
2022/11/03 19:25:51;;;;;;;38.35;18.92;;;;;;;12.83;65.04;99894.94;7712182;32;39702;-80
2022/11/03 19:30:15;;;;;;;39.92;19.83;;;;;;;13.11;64.25;99883.22;7710862;32;38789;-75
2022/11/03 19:34:34;;;;;;;42.90;20.20;;;;;;;13.18;63.85;99871.13;7712228;32;37897;-79
2022/11/03 19:38:50;;;;;;;42.53;19.60;;;;;;;13.01;64.78;99868.81;7711879;32;39429;-81
2022/11/03 19:43:09;;;;;;;43.47;20.80;;;;;;;12.93;65.36;99872.97;7711963;32;40773;-79
2022/11/03 19:47:27;;;;;;;48.33;21.37;;;;;;;12.87;65.39;99868.66;7711957;32;38122;-78
2022/11/03 19:51:48;;;;;;;44.30;20.83;;;;;;;13.16;64.68;99860.47;7711973;32;37068;-78
2022/11/03 19:56:04;;;;;;;46.83;21.73;;;;;;;13.29;64.18;99859.00;7711441;32;38991;-79
2022/11/03 20:00:20;;;;;;;50.42;22.37;;;;;;;13.03;65.08;99842.78;7710410;32;39988;-80
2022/11/03 20:04:37;;;;;;;44.72;21.02;;;;;;;12.95;65.00;99846.13;7714457;32;37861;-80
2022/11/03 20:08:53;;;;;;;48.90;19.85;;;;;;;13.09;64.97;99838.06;7713590;32;38040;-81
2022/11/03 20:13:11;;;;;;;45.75;20.55;;;;;;;12.95;66.93;99821.50;7738411;32;40177;-81
2022/11/03 20:17:27;;;;;;;48.47;20.77;;;;;;;13.16;64.88;99816.69;7737121;32;39872;-81
2022/11/03 20:21:44;;;;;;;49.53;21.75;;;;;;;13.31;64.03;99818.44;7738209;32;39210;-82